Salty Pause — WDF8240 — position and weather

sailwx.info

Track history (hours):
 
Tides and Currents Weather Stations Pressure Air Temp Water Temp Dewpoint Dewpoint Depression Visibility Wind Speed Wind Dir Waves Ship Positions

Salty Pause

Owner: Volk DVM, Donald J, Orono, ME. More information available from US FCC via Universal Licensing System and Coast Guard Vessel Documentation Center.

Last reported at 2017-Nov-19 23:12 UTC. Time now 2017-Nov-20 00:26 UTC.
Position N 17°05' W 061°54'.

Length 13 m.

Type: Sailing vessel. MMSI: 367492850.

Date/timePositionNaut miles runAvg speedWind from/ knotsBaromVisibWave heightAir tempDewpointWater temp
2017-Nov-19 23:12N 17°05' W 061°54'1 3.7
2017-Nov-19 22:52N 17°04' W 061°55'2 5.5
2017-Nov-19 22:30N 17°06' W 061°56'4 6.6
2017-Nov-19 21:57N 17°10' W 061°57'3 6.8
2017-Nov-19 21:30N 17°13' W 061°57'3 6.9
2017-Nov-19 21:00N 17°16' W 061°57'3 6.2
2017-Nov-19 20:30N 17°19' W 061°58'3 6.5
2017-Nov-19 20:00N 17°22' W 061°58'3 5.9
2017-Nov-19 19:30N 17°25' W 061°59'3 6.1
2017-Nov-19 19:00N 17°28' W 061°59'3 6.1
2017-Nov-19 18:30N 17°31' W 061°59'  
Track history (hours):
 
Tides and Currents Weather Stations Pressure Air Temp Water Temp Dewpoint Dewpoint Depression Visibility Wind Speed Wind Dir Waves Ship Positions

Salty Pause

Owner: Volk DVM, Donald J, Orono, ME. More information available from US FCC via Universal Licensing System and Coast Guard Vessel Documentation Center.

Last reported at 2017-Nov-19 23:12 UTC. Time now 2017-Nov-20 00:26 UTC.
Position N 17°05' W 061°54'.

Length 13 m.

Type: Sailing vessel. MMSI: 367492850.

Date/timePositionNaut miles runAvg speedWind from/ knotsBaromVisibWave heightAir tempDewpointWater temp
2017-Nov-19 23:12N 17°05' W 061°54'1 3.7
2017-Nov-19 22:52N 17°04' W 061°55'2 5.5
2017-Nov-19 22:30N 17°06' W 061°56'4 6.6
2017-Nov-19 21:57N 17°10' W 061°57'3 6.8
2017-Nov-19 21:30N 17°13' W 061°57'3 6.9
2017-Nov-19 21:00N 17°16' W 061°57'3 6.2
2017-Nov-19 20:30N 17°19' W 061°58'3 6.5
2017-Nov-19 20:00N 17°22' W 061°58'3 5.9
2017-Nov-19 19:30N 17°25' W 061°59'3 6.1
2017-Nov-19 19:00N 17°28' W 061°59'3 6.1
2017-Nov-19 18:30N 17°31' W 061°59'  

Dump ship's entire track history